sensor_id;sensor_type;location;lat;lon;timestamp;pressure;altitude;pressure_sealevel;temperature;humidity
75036;BME280;64247;51.540;5.854;2023-02-12T00:01:17;103521.03;;;6.95;100.00
75036;BME280;64247;51.540;5.854;2023-02-12T00:03:18;103518.59;;;6.93;100.00
75036;BME280;64247;51.540;5.854;2023-02-12T00:05:19;103515.06;;;6.93;100.00
75036;BME280;64247;51.540;5.854;2023-02-12T00:07:20;103515.88;;;6.93;100.00
75036;BME280;64247;51.540;5.854;2023-02-12T00:09:21;103520.50;;;6.98;100.00
75036;BME280;64247;51.540;5.854;2023-02-12T00:11:28;103520.03;;;7.01;100.00
75036;BME280;64247;51.540;5.854;2023-02-12T00:13:30;103519.72;;;6.97;100.00
75036;BME280;64247;51.540;5.854;2023-02-12T00:15:31;103520.19;;;6.94;100.00
75036;BME280;64247;51.540;5.854;2023-02-12T00:17:33;103521.34;;;6.99;100.00
75036;BME280;64247;51.540;5.854;2023-02-12T00:19:34;103521.94;;;7.01;100.00
75036;BME280;64247;51.540;5.854;2023-02-12T00:21:35;103527.66;;;7.04;100.00
75036;BME280;64247;51.540;5.854;2023-02-12T00:23:37;103523.84;;;7.05;100.00
75036;BME280;64247;51.540;5.854;2023-02-12T00:25:41;103522.25;;;7.04;100.00
75036;BME280;64247;51.540;5.854;2023-02-12T00:27:42;103524.94;;;7.04;100.00
75036;BME280;64247;51.540;5.854;2023-02-12T00:29:43;103525.50;;;7.06;99.90
75036;BME280;64247;51.540;5.854;2023-02-12T00:31:44;103530.66;;;7.08;99.75
75036;BME280;64247;51.540;5.854;2023-02-12T00:33:44;103531.47;;;7.08;99.52
75036;BME280;64247;51.540;5.854;2023-02-12T00:36:05;103520.34;;;7.05;99.79
75036;BME280;64247;51.540;5.854;2023-02-12T00:38:07;103529.25;;;7.05;99.60
75036;BME280;64247;51.540;5.854;2023-02-12T00:40:08;103520.09;;;7.06;99.38
75036;BME280;64247;51.540;5.854;2023-02-12T00:42:10;103524.41;;;7.07;99.10
75036;BME280;64247;51.540;5.854;2023-02-12T00:44:11;103536.88;;;7.08;98.56
75036;BME280;64247;51.540;5.854;2023-02-12T00:46:12;103521.97;;;7.06;98.54
75036;BME280;64247;51.540;5.854;2023-02-12T00:48:14;103526.22;;;7.02;98.42
75036;BME280;64247;51.540;5.854;2023-02-12T00:50:15;103515.38;;;6.96;98.58
75036;BME280;64247;51.540;5.854;2023-02-12T00:52:16;103521.84;;;6.95;98.77
75036;BME280;64247;51.540;5.854;2023-02-12T00:54:17;103521.28;;;6.93;98.76
75036;BME280;64247;51.540;5.854;2023-02-12T00:56:18;103515.31;;;6.91;98.39
75036;BME280;64247;51.540;5.854;2023-02-12T00:58:22;103524.22;;;6.92;98.15
75036;BME280;64247;51.540;5.854;2023-02-12T01:00:23;103522.84;;;6.89;98.48
75036;BME280;64247;51.540;5.854;2023-02-12T01:02:24;103522.03;;;6.89;97.98
75036;BME280;64247;51.540;5.854;2023-02-12T01:04:25;103526.59;;;6.88;98.14
75036;BME280;64247;51.540;5.854;2023-02-12T01:06:28;103526.13;;;6.91;98.37
75036;BME280;64247;51.540;5.854;2023-02-12T01:08:29;103516.94;;;6.92;98.43
75036;BME280;64247;51.540;5.854;2023-02-12T01:10:31;103521.53;;;6.92;98.58
75036;BME280;64247;51.540;5.854;2023-02-12T01:12:32;103515.31;;;6.91;97.84
75036;BME280;64247;51.540;5.854;2023-02-12T01:14:33;103517.75;;;6.93;97.72
75036;BME280;64247;51.540;5.854;2023-02-12T01:16:34;103523.47;;;6.96;96.97
75036;BME280;64247;51.540;5.854;2023-02-12T01:18:37;103508.28;;;6.90;97.54
75036;BME280;64247;51.540;5.854;2023-02-12T01:20:39;103521.47;;;6.87;97.80
75036;BME280;64247;51.540;5.854;2023-02-12T01:22:40;103520.63;;;6.86;98.01
75036;BME280;64247;51.540;5.854;2023-02-12T01:24:42;103524.41;;;6.85;98.28
75036;BME280;64247;51.540;5.854;2023-02-12T01:26:43;103517.38;;;6.84;98.40
75036;BME280;64247;51.540;5.854;2023-02-12T01:28:48;103519.25;;;6.84;98.47
75036;BME280;64247;51.540;5.854;2023-02-12T01:30:54;103508.97;;;6.80;97.10
75036;BME280;64247;51.540;5.854;2023-02-12T01:32:55;103508.22;;;6.85;97.10
75036;BME280;64247;51.540;5.854;2023-02-12T01:34:56;103509.09;;;6.91;96.20
75036;BME280;64247;51.540;5.854;2023-02-12T01:36:57;103502.63;;;6.92;95.81
75036;BME280;64247;51.540;5.854;2023-02-12T01:38:58;103505.09;;;6.93;94.96
75036;BME280;64247;51.540;5.854;2023-02-12T01:41:07;103510.72;;;6.92;95.21
75036;BME280;64247;51.540;5.854;2023-02-12T01:43:11;103511.22;;;6.89;95.63
75036;BME280;64247;51.540;5.854;2023-02-12T01:47:53;103510.91;;;6.85;94.83
75036;BME280;64247;51.540;5.854;2023-02-12T01:49:56;103517.13;;;6.86;95.28
75036;BME280;64247;51.540;5.854;2023-02-12T01:52:09;103520.13;;;6.89;95.41
75036;BME280;64247;51.540;5.854;2023-02-12T01:54:17;103517.19;;;6.91;95.63
75036;BME280;64247;51.540;5.854;2023-02-12T01:56:23;103510.50;;;6.93;95.90
75036;BME280;64247;51.540;5.854;2023-02-12T01:58:26;103511.28;;;6.94;95.79
75036;BME280;64247;51.540;5.854;2023-02-12T02:00:31;103509.66;;;6.93;95.74
75036;BME280;64247;51.540;5.854;2023-02-12T02:02:33;103506.16;;;6.92;95.91
75036;BME280;64247;51.540;5.854;2023-02-12T02:04:45;103512.09;;;6.94;95.93
75036;BME280;64247;51.540;5.854;2023-02-12T02:06:57;103508.09;;;6.97;96.45
75036;BME280;64247;51.540;5.854;2023-02-12T02:09:02;103502.63;;;6.92;96.57
75036;BME280;64247;51.540;5.854;2023-02-12T02:11:05;103496.91;;;6.88;96.78
75036;BME280;64247;51.540;5.854;2023-02-12T02:13:26;103504.44;;;6.86;97.10
75036;BME280;64247;51.540;5.854;2023-02-12T02:15:48;103494.72;;;6.85;96.91
75036;BME280;64247;51.540;5.854;2023-02-12T02:24:11;103504.94;;;6.83;96.63
75036;BME280;64247;51.540;5.854;2023-02-12T02:32:37;103491.81;;;6.70;96.76
75036;BME280;64247;51.540;5.854;2023-02-12T02:37:59;103500.34;;;6.61;97.49
75036;BME280;64247;51.540;5.854;2023-02-12T02:40:31;103493.56;;;6.59;97.78
75036;BME280;64247;51.540;5.854;2023-02-12T02:43:15;103492.47;;;6.60;97.80
75036;BME280;64247;51.540;5.854;2023-02-12T02:45:46;103492.47;;;6.60;97.87
75036;BME280;64247;51.540;5.854;2023-02-12T02:48:12;103491.41;;;6.61;97.83
75036;BME280;64247;51.540;5.854;2023-02-12T02:50:22;103493.63;;;6.64;97.96
75036;BME280;64247;51.540;5.854;2023-02-12T02:52:35;103486.56;;;6.63;97.46
75036;BME280;64247;51.540;5.854;2023-02-12T02:54:44;103482.06;;;6.69;95.57
75036;BME280;64247;51.540;5.854;2023-02-12T02:56:51;103492.34;;;6.72;95.70
75036;BME280;64247;51.540;5.854;2023-02-12T02:59:06;103496.38;;;6.69;95.90
75036;BME280;64247;51.540;5.854;2023-02-12T03:01:29;103494.50;;;6.70;96.46
75036;BME280;64247;51.540;5.854;2023-02-12T03:03:58;103489.34;;;6.68;96.22
75036;BME280;64247;51.540;5.854;2023-02-12T03:06:09;103490.16;;;6.69;97.10
75036;BME280;64247;51.540;5.854;2023-02-12T03:08:22;103489.59;;;6.67;97.07
75036;BME280;64247;51.540;5.854;2023-02-12T03:10:33;103491.72;;;6.64;97.53
75036;BME280;64247;51.540;5.854;2023-02-12T03:12:46;103480.06;;;6.59;97.19
75036;BME280;64247;51.540;5.854;2023-02-12T03:15:00;103490.28;;;6.57;97.62
75036;BME280;64247;51.540;5.854;2023-02-12T03:17:32;103493.19;;;6.55;98.21
75036;BME280;64247;51.540;5.854;2023-02-12T03:19:44;103484.88;;;6.57;97.53
75036;BME280;64247;51.540;5.854;2023-02-12T03:22:16;103482.09;;;6.52;98.03
75036;BME280;64247;51.540;5.854;2023-02-12T03:24:47;103479.63;;;6.50;97.87
75036;BME280;64247;51.540;5.854;2023-02-12T03:27:01;103481.22;;;6.46;97.96
75036;BME280;64247;51.540;5.854;2023-02-12T03:29:25;103488.16;;;6.42;97.73
75036;BME280;64247;51.540;5.854;2023-02-12T03:31:55;103493.81;;;6.40;98.30
75036;BME280;64247;51.540;5.854;2023-02-12T03:35:09;103494.88;;;6.39;96.64
75036;BME280;64247;51.540;5.854;2023-02-12T03:37:11;103487.75;;;6.33;95.93
75036;BME280;64247;51.540;5.854;2023-02-12T03:39:42;103483.44;;;6.32;96.47
75036;BME280;64247;51.540;5.854;2023-02-12T03:42:12;103480.09;;;6.25;98.19
75036;BME280;64247;51.540;5.854;2023-02-12T03:47:35;103487.19;;;6.31;97.50
75036;BME280;64247;51.540;5.854;2023-02-12T03:50:10;103481.31;;;6.34;96.82
75036;BME280;64247;51.540;5.854;2023-02-12T03:52:20;103480.63;;;6.44;96.29
75036;BME280;64247;51.540;5.854;2023-02-12T03:54:21;103483.50;;;6.54;95.18
75036;BME280;64247;51.540;5.854;2023-02-12T03:59:13;103489.69;;;6.55;94.58
75036;BME280;64247;51.540;5.854;2023-02-12T04:01:14;103489.69;;;6.55;95.19
75036;BME280;64247;51.540;5.854;2023-02-12T04:03:15;103481.28;;;6.51;94.84
75036;BME280;64247;51.540;5.854;2023-02-12T04:05:22;103485.28;;;6.48;94.80
75036;BME280;64247;51.540;5.854;2023-02-12T04:07:24;103478.84;;;6.49;94.85
75036;BME280;64247;51.540;5.854;2023-02-12T04:09:26;103483.81;;;6.58;94.67
75036;BME280;64247;51.540;5.854;2023-02-12T04:21:05;103480.69;;;6.49;95.57
75036;BME280;64247;51.540;5.854;2023-02-12T04:29:33;103498.78;;;6.48;95.27
75036;BME280;64247;51.540;5.854;2023-02-12T04:50:54;103526.16;;;6.57;95.88
75036;BME280;64247;51.540;5.854;2023-02-12T04:52:55;103517.00;;;6.58;95.73
75036;BME280;64247;51.540;5.854;2023-02-12T04:54:56;103514.06;;;6.60;95.77
75036;BME280;64247;51.540;5.854;2023-02-12T04:56:56;103524.38;;;6.63;95.90
75036;BME280;64247;51.540;5.854;2023-02-12T04:58:57;103528.44;;;6.65;96.06
75036;BME280;64247;51.540;5.854;2023-02-12T05:00:58;103516.00;;;6.64;95.46
75036;BME280;64247;51.540;5.854;2023-02-12T05:02:59;103524.09;;;6.64;95.67
75036;BME280;64247;51.540;5.854;2023-02-12T05:05:00;103526.81;;;6.64;95.59
75036;BME280;64247;51.540;5.854;2023-02-12T05:07:01;103527.66;;;6.65;96.00
75036;BME280;64247;51.540;5.854;2023-02-12T05:09:03;103520.59;;;6.64;95.83
75036;BME280;64247;51.540;5.854;2023-02-12T05:11:07;103507.13;;;6.64;96.09
75036;BME280;64247;51.540;5.854;2023-02-12T05:13:09;103521.41;;;6.64;96.24
75036;BME280;64247;51.540;5.854;2023-02-12T05:15:10;103515.22;;;6.64;96.03
75036;BME280;64247;51.540;5.854;2023-02-12T05:17:11;103518.97;;;6.63;96.19
75036;BME280;64247;51.540;5.854;2023-02-12T05:19:11;103521.34;;;6.59;96.15
75036;BME280;64247;51.540;5.854;2023-02-12T05:21:13;103528.13;;;6.62;96.59
75036;BME280;64247;51.540;5.854;2023-02-12T05:23:14;103525.69;;;6.60;96.59
75036;BME280;64247;51.540;5.854;2023-02-12T05:25:14;103531.66;;;6.62;96.73
75036;BME280;64247;51.540;5.854;2023-02-12T05:27:15;103529.50;;;6.64;96.22
75036;BME280;64247;51.540;5.854;2023-02-12T05:29:17;103526.91;;;6.70;96.14
75036;BME280;64247;51.540;5.854;2023-02-12T05:31:19;103524.19;;;6.70;95.40
75036;BME280;64247;51.540;5.854;2023-02-12T05:33:21;103530.09;;;6.67;95.28
75036;BME280;64247;51.540;5.854;2023-02-12T05:35:22;103518.47;;;6.66;95.79
75036;BME280;64247;51.540;5.854;2023-02-12T05:37:23;103520.28;;;6.60;96.51
75036;BME280;64247;51.540;5.854;2023-02-12T05:39:23;103531.81;;;6.56;97.29
75036;BME280;64247;51.540;5.854;2023-02-12T05:41:25;103527.63;;;6.48;97.95
75036;BME280;64247;51.540;5.854;2023-02-12T05:43:26;103523.22;;;6.42;97.69
75036;BME280;64247;51.540;5.854;2023-02-12T05:45:28;103531.59;;;6.40;97.93
75036;BME280;64247;51.540;5.854;2023-02-12T05:47:28;103527.25;;;6.39;97.84
75036;BME280;64247;51.540;5.854;2023-02-12T05:49:29;103526.66;;;6.37;98.69
75036;BME280;64247;51.540;5.854;2023-02-12T05:51:30;103529.94;;;6.39;98.66
75036;BME280;64247;51.540;5.854;2023-02-12T05:53:32;103533.22;;;6.41;99.10
75036;BME280;64247;51.540;5.854;2023-02-12T05:55:33;103531.59;;;6.40;98.63
75036;BME280;64247;51.540;5.854;2023-02-12T05:57:34;103531.84;;;6.39;98.94
75036;BME280;64247;51.540;5.854;2023-02-12T05:59:35;103541.00;;;6.38;98.54
75036;BME280;64247;51.540;5.854;2023-02-12T06:01:38;103549.41;;;6.41;98.71
75036;BME280;64247;51.540;5.854;2023-02-12T06:03:41;103540.72;;;6.39;98.74
75036;BME280;64247;51.540;5.854;2023-02-12T06:05:42;103537.47;;;6.37;99.01
75036;BME280;64247;51.540;5.854;2023-02-12T06:07:43;103543.59;;;6.32;99.52
75036;BME280;64247;51.540;5.854;2023-02-12T06:09:44;103545.72;;;6.30;99.62
75036;BME280;64247;51.540;5.854;2023-02-12T06:11:45;103542.19;;;6.30;99.39
75036;BME280;64247;51.540;5.854;2023-02-12T06:13:46;103538.69;;;6.29;100.00
75036;BME280;64247;51.540;5.854;2023-02-12T06:15:47;103544.91;;;6.30;99.68
75036;BME280;64247;51.540;5.854;2023-02-12T06:17:48;103542.78;;;6.32;99.98
75036;BME280;64247;51.540;5.854;2023-02-12T06:19:49;103544.41;;;6.33;100.00
75036;BME280;64247;51.540;5.854;2023-02-12T06:21:50;103550.16;;;6.37;99.67
75036;BME280;64247;51.540;5.854;2023-02-12T06:23:51;103546.72;;;6.41;99.02
75036;BME280;64247;51.540;5.854;2023-02-12T06:25:55;103549.72;;;6.45;99.14
75036;BME280;64247;51.540;5.854;2023-02-12T06:27:56;103555.06;;;6.40;99.26
75036;BME280;64247;51.540;5.854;2023-02-12T06:29:57;103554.16;;;6.34;98.58
75036;BME280;64247;51.540;5.854;2023-02-12T06:31:57;103556.75;;;6.29;98.66
75036;BME280;64247;51.540;5.854;2023-02-12T06:34:04;103549.97;;;6.26;99.01
75036;BME280;64247;51.540;5.854;2023-02-12T06:36:07;103548.56;;;6.24;99.52
75036;BME280;64247;51.540;5.854;2023-02-12T06:38:09;103557.50;;;6.24;98.93
75036;BME280;64247;51.540;5.854;2023-02-12T06:40:11;103552.19;;;6.29;98.42
75036;BME280;64247;51.540;5.854;2023-02-12T06:42:12;103548.19;;;6.32;98.45
75036;BME280;64247;51.540;5.854;2023-02-12T06:44:13;103553.56;;;6.32;98.57
75036;BME280;64247;51.540;5.854;2023-02-12T06:46:14;103553.25;;;6.28;98.90
75036;BME280;64247;51.540;5.854;2023-02-12T06:48:15;103548.09;;;6.27;98.73
75036;BME280;64247;51.540;5.854;2023-02-12T06:50:16;103549.47;;;6.29;99.69
75036;BME280;64247;51.540;5.854;2023-02-12T06:52:17;103546.06;;;6.34;99.05
75036;BME280;64247;51.540;5.854;2023-02-12T06:54:18;103559.28;;;6.36;99.22
75036;BME280;64247;51.540;5.854;2023-02-12T06:56:20;103560.59;;;6.33;99.16
75036;BME280;64247;51.540;5.854;2023-02-12T06:58:22;103558.88;;;6.27;99.63
75036;BME280;64247;51.540;5.854;2023-02-12T07:00:23;103552.09;;;6.24;100.00
75036;BME280;64247;51.540;5.854;2023-02-12T07:02:24;103563.69;;;6.25;99.67
75036;BME280;64247;51.540;5.854;2023-02-12T07:04:25;103570.47;;;6.27;99.51
75036;BME280;64247;51.540;5.854;2023-02-12T07:06:27;103571.97;;;6.35;99.28
75036;BME280;64247;51.540;5.854;2023-02-12T07:08:29;103570.88;;;6.36;99.61
75036;BME280;64247;51.540;5.854;2023-02-12T07:10:29;103567.66;;;6.34;98.59
75036;BME280;64247;51.540;5.854;2023-02-12T07:12:32;103561.19;;;6.35;98.97
75036;BME280;64247;51.540;5.854;2023-02-12T07:14:33;103571.97;;;6.35;99.26
75036;BME280;64247;51.540;5.854;2023-02-12T07:16:34;103570.88;;;6.36;99.12
75036;BME280;64247;51.540;5.854;2023-02-12T07:18:35;103571.72;;;6.37;99.23
75036;BME280;64247;51.540;5.854;2023-02-12T07:20:37;103571.72;;;6.37;99.25
75036;BME280;64247;51.540;5.854;2023-02-12T07:22:38;103568.19;;;6.36;98.66
75036;BME280;64247;51.540;5.854;2023-02-12T07:24:39;103579.56;;;6.38;99.34
75036;BME280;64247;51.540;5.854;2023-02-12T07:26:40;103578.31;;;6.29;99.26
75036;BME280;64247;51.540;5.854;2023-02-12T07:28:42;103578.00;;;6.25;99.47
75036;BME280;64247;51.540;5.854;2023-02-12T07:30:43;103581.53;;;6.26;99.50
75036;BME280;64247;51.540;5.854;2023-02-12T07:32:44;103582.34;;;6.26;99.77
75036;BME280;64247;51.540;5.854;2023-02-12T07:34:45;103583.97;;;6.27;100.00
75036;BME280;64247;51.540;5.854;2023-02-12T07:36:46;103587.00;;;6.31;100.00
75036;BME280;64247;51.540;5.854;2023-02-12T07:38:47;103584.38;;;6.36;99.98
75036;BME280;64247;51.540;5.854;2023-02-12T07:40:48;103582.84;;;6.40;100.00
75036;BME280;64247;51.540;5.854;2023-02-12T07:42:53;103589.38;;;6.44;99.77
75036;BME280;64247;51.540;5.854;2023-02-12T07:44:55;103593.16;;;6.43;99.57
75036;BME280;64247;51.540;5.854;2023-02-12T07:46:56;103587.25;;;6.46;100.00
75036;BME280;64247;51.540;5.854;2023-02-12T07:48:58;103594.88;;;6.49;100.00
75036;BME280;64247;51.540;5.854;2023-02-12T07:51:06;103591.13;;;6.51;99.75
75036;BME280;64247;51.540;5.854;2023-02-12T07:53:08;103590.59;;;6.54;99.63
75036;BME280;64247;51.540;5.854;2023-02-12T07:55:09;103590.34;;;6.55;99.25
75036;BME280;64247;51.540;5.854;2023-02-12T07:57:10;103582.84;;;6.57;99.44
75036;BME280;64247;51.540;5.854;2023-02-12T07:59:14;103590.47;;;6.60;99.43
75036;BME280;64247;51.540;5.854;2023-02-12T08:01:25;103601.91;;;6.68;99.41
75036;BME280;64247;51.540;5.854;2023-02-12T08:03:31;103590.28;;;6.67;98.99
75036;BME280;64247;51.540;5.854;2023-02-12T08:05:32;103592.25;;;6.72;99.46
75036;BME280;64247;51.540;5.854;2023-02-12T08:07:33;103592.66;;;6.63;99.81
75036;BME280;64247;51.540;5.854;2023-02-12T08:09:34;103596.66;;;6.61;99.96
75036;BME280;64247;51.540;5.854;2023-02-12T08:11:35;103603.13;;;6.60;99.92
75036;BME280;64247;51.540;5.854;2023-02-12T08:13:37;103605.09;;;6.64;100.00
75036;BME280;64247;51.540;5.854;2023-02-12T08:15:38;103606.56;;;6.72;100.00
75036;BME280;64247;51.540;5.854;2023-02-12T08:17:39;103609.66;;;6.81;100.00
75036;BME280;64247;51.540;5.854;2023-02-12T08:19:42;103602.63;;;6.80;99.60
75036;BME280;64247;51.540;5.854;2023-02-12T08:21:43;103611.22;;;6.77;100.00
75036;BME280;64247;51.540;5.854;2023-02-12T08:23:45;103617.59;;;6.71;100.00
75036;BME280;64247;51.540;5.854;2023-02-12T08:25:50;103613.50;;;6.68;100.00
75036;BME280;64247;51.540;5.854;2023-02-12T08:27:51;103619.22;;;6.72;100.00
75036;BME280;64247;51.540;5.854;2023-02-12T08:29:51;103622.03;;;6.77;100.00
75036;BME280;64247;51.540;5.854;2023-02-12T08:32:00;103623.50;;;6.85;100.00
75036;BME280;64247;51.540;5.854;2023-02-12T08:34:03;103621.13;;;6.88;99.71
75036;BME280;64247;51.540;5.854;2023-02-12T08:36:13;103621.69;;;6.90;99.84
75036;BME280;64247;51.540;5.854;2023-02-12T08:38:16;103629.63;;;6.97;100.00
75036;BME280;64247;51.540;5.854;2023-02-12T08:40:17;103628.13;;;7.06;99.72
75036;BME280;64247;51.540;5.854;2023-02-12T08:42:18;103630.97;;;7.17;98.53
75036;BME280;64247;51.540;5.854;2023-02-12T08:44:19;103624.56;;;7.23;98.32
75036;BME280;64247;51.540;5.854;2023-02-12T08:46:23;103620.34;;;7.27;98.51
75036;BME280;64247;51.540;5.854;2023-02-12T08:48:28;103621.44;;;7.31;98.35
75036;BME280;64247;51.540;5.854;2023-02-12T08:50:29;103622.03;;;7.33;97.98
75036;BME280;64247;51.540;5.854;2023-02-12T08:52:30;103632.91;;;7.38;98.05
75036;BME280;64247;51.540;5.854;2023-02-12T08:54:33;103622.13;;;7.43;98.03
75036;BME280;64247;51.540;5.854;2023-02-12T08:56:34;103628.06;;;7.40;98.23
75036;BME280;64247;51.540;5.854;2023-02-12T08:58:36;103623.78;;;7.44;98.33
75036;BME280;64247;51.540;5.854;2023-02-12T09:00:37;103627.38;;;7.50;98.29
75036;BME280;64247;51.540;5.854;2023-02-12T09:02:37;103623.13;;;7.54;98.21
75036;BME280;64247;51.540;5.854;2023-02-12T09:04:38;103629.91;;;7.57;97.98
75036;BME280;64247;51.540;5.854;2023-02-12T09:06:40;103625.63;;;7.61;98.26
75036;BME280;64247;51.540;5.854;2023-02-12T09:08:41;103630.84;;;7.68;98.31
75036;BME280;64247;51.540;5.854;2023-02-12T09:10:43;103629.56;;;7.75;98.40
75036;BME280;64247;51.540;5.854;2023-02-12T09:12:45;103632.09;;;7.82;98.24
75036;BME280;64247;51.540;5.854;2023-02-12T09:14:46;103635.16;;;7.91;97.51
75036;BME280;64247;51.540;5.854;2023-02-12T09:16:47;103636.34;;;8.00;96.97
75036;BME280;64247;51.540;5.854;2023-02-12T09:18:48;103640.22;;;8.10;96.82
75036;BME280;64247;51.540;5.854;2023-02-12T09:20:48;103641.91;;;8.16;95.20
75036;BME280;64247;51.540;5.854;2023-02-12T09:22:49;103642.22;;;8.19;95.10
75036;BME280;64247;51.540;5.854;2023-02-12T09:24:50;103644.16;;;8.24;93.94
75036;BME280;64247;51.540;5.854;2023-02-12T09:26:51;103648.22;;;8.27;93.86
75036;BME280;64247;51.540;5.854;2023-02-12T09:28:53;103649.56;;;8.24;93.82
75036;BME280;64247;51.540;5.854;2023-02-12T09:30:54;103649.00;;;8.22;93.95
75036;BME280;64247;51.540;5.854;2023-02-12T09:32:55;103643.84;;;8.20;93.36
75036;BME280;64247;51.540;5.854;2023-02-12T09:34:56;103649.84;;;8.22;93.14
75036;BME280;64247;51.540;5.854;2023-02-12T09:36:57;103647.44;;;8.26;92.68
75036;BME280;64247;51.540;5.854;2023-02-12T09:38:58;103635.53;;;8.27;92.81
75036;BME280;64247;51.540;5.854;2023-02-12T09:44:24;103644.59;;;8.43;92.48
75036;BME280;64247;51.540;5.854;2023-02-12T09:50:14;103644.25;;;8.62;91.17
75036;BME280;64247;51.540;5.854;2023-02-12T09:52:40;103642.66;;;8.66;90.97
75036;BME280;64247;51.540;5.854;2023-02-12T09:54:42;103640.53;;;8.73;91.40
75036;BME280;64247;51.540;5.854;2023-02-12T09:56:47;103649.53;;;8.79;91.69
75036;BME280;64247;51.540;5.854;2023-02-12T09:58:58;103644.16;;;8.84;91.35
75036;BME280;64247;51.540;5.854;2023-02-12T10:01:13;103639.03;;;8.87;91.66
75036;BME280;64247;51.540;5.854;2023-02-12T10:03:16;103648.31;;;8.97;90.77
75036;BME280;64247;51.540;5.854;2023-02-12T10:05:40;103648.63;;;9.06;89.02
75036;BME280;64247;51.540;5.854;2023-02-12T10:08:14;103649.19;;;9.08;87.93
75036;BME280;64247;51.540;5.854;2023-02-12T10:23:45;103650.34;;;9.75;86.15
75036;BME280;64247;51.540;5.854;2023-02-12T10:26:06;103648.47;;;9.86;84.39
75036;BME280;64247;51.540;5.854;2023-02-12T10:28:26;103637.09;;;9.94;84.88
75036;BME280;64247;51.540;5.854;2023-02-12T10:30:57;103641.19;;;10.02;83.44
75036;BME280;64247;51.540;5.854;2023-02-12T10:33:05;103641.22;;;10.07;83.67
75036;BME280;64247;51.540;5.854;2023-02-12T10:35:17;103651.00;;;10.13;83.91
75036;BME280;64247;51.540;5.854;2023-02-12T10:40:24;103648.25;;;10.08;82.40
75036;BME280;64247;51.540;5.854;2023-02-12T10:42:37;103650.44;;;10.06;82.72
75036;BME280;64247;51.540;5.854;2023-02-12T10:44:41;103648.00;;;10.10;82.67
75036;BME280;64247;51.540;5.854;2023-02-12T10:46:42;103643.13;;;10.17;82.69
75036;BME280;64247;51.540;5.854;2023-02-12T10:48:45;103647.22;;;10.30;82.90
75036;BME280;64247;51.540;5.854;2023-02-12T10:53:41;103643.72;;;10.40;80.39
75036;BME280;64247;51.540;5.854;2023-02-12T10:55:44;103654.59;;;10.45;79.93
75036;BME280;64247;51.540;5.854;2023-02-12T10:57:45;103648.88;;;10.52;78.98
75036;BME280;64247;51.540;5.854;2023-02-12T10:59:49;103647.78;;;10.63;78.96
75036;BME280;64247;51.540;5.854;2023-02-12T11:01:52;103649.44;;;10.74;77.28
75036;BME280;64247;51.540;5.854;2023-02-12T11:03:55;103647.25;;;10.76;77.52
75036;BME280;64247;51.540;5.854;2023-02-12T11:06:10;103649.97;;;10.66;77.89
75036;BME280;64247;51.540;5.854;2023-02-12T11:08:33;103648.63;;;10.48;77.89
75036;BME280;64247;51.540;5.854;2023-02-12T11:10:38;103642.88;;;10.39;78.48
75036;BME280;64247;51.540;5.854;2023-02-12T11:12:41;103638.81;;;10.37;79.91
75036;BME280;64247;51.540;5.854;2023-02-12T11:14:56;103638.00;;;10.36;79.45
75036;BME280;64247;51.540;5.854;2023-02-12T11:17:00;103643.44;;;10.41;79.84
75036;BME280;64247;51.540;5.854;2023-02-12T11:19:20;103639.91;;;10.51;78.64
75036;BME280;64247;51.540;5.854;2023-02-12T11:21:26;103635.84;;;10.54;78.78
75036;BME280;64247;51.540;5.854;2023-02-12T11:23:47;103631.50;;;10.58;76.94
75036;BME280;64247;51.540;5.854;2023-02-12T11:28:30;103636.66;;;10.54;77.83
75036;BME280;64247;51.540;5.854;2023-02-12T11:30:33;103630.13;;;10.60;76.15
75036;BME280;64247;51.540;5.854;2023-02-12T11:32:34;103626.31;;;10.67;75.10
75036;BME280;64247;51.540;5.854;2023-02-12T11:34:36;103623.06;;;10.75;76.04
75036;BME280;64247;51.540;5.854;2023-02-12T11:36:41;103622.22;;;10.85;75.44
75036;BME280;64247;51.540;5.854;2023-02-12T11:39:02;103622.50;;;10.88;72.54
75036;BME280;64247;51.540;5.854;2023-02-12T11:43:49;103618.97;;;10.77;72.01
75036;BME280;64247;51.540;5.854;2023-02-12T11:45:53;103618.72;;;10.79;73.06
75036;BME280;64247;51.540;5.854;2023-02-12T11:47:56;103617.63;;;10.85;73.57
75036;BME280;64247;51.540;5.854;2023-02-12T11:50:07;103611.88;;;10.92;73.71
75036;BME280;64247;51.540;5.854;2023-02-12T11:52:23;103610.28;;;10.91;74.02
75036;BME280;64247;51.540;5.854;2023-02-12T11:54:28;103610.81;;;10.93;73.80
75036;BME280;64247;51.540;5.854;2023-02-12T11:56:42;103612.72;;;10.87;72.64
75036;BME280;64247;51.540;5.854;2023-02-12T11:58:47;103606.50;;;10.76;73.04
75036;BME280;64247;51.540;5.854;2023-02-12T12:12:20;103594.53;;;10.77;73.94
75036;BME280;64247;51.540;5.854;2023-02-12T12:14:34;103595.88;;;10.85;75.02
75036;BME280;64247;51.540;5.854;2023-02-12T12:17:03;103599.13;;;10.92;73.61
75036;BME280;64247;51.540;5.854;2023-02-12T12:19:39;103595.06;;;10.90;74.48
75036;BME280;64247;51.540;5.854;2023-02-12T12:25:12;103591.22;;;11.01;73.60
75036;BME280;64247;51.540;5.854;2023-02-12T12:27:59;103590.94;;;10.98;73.14
75036;BME280;64247;51.540;5.854;2023-02-12T12:30:19;103580.09;;;10.92;73.89
75036;BME280;64247;51.540;5.854;2023-02-12T12:32:25;103588.81;;;10.95;74.31
75036;BME280;64247;51.540;5.854;2023-02-12T12:34:30;103580.91;;;10.98;74.39
75036;BME280;64247;51.540;5.854;2023-02-12T13:03:41;103560.53;;;10.96;72.89
75036;BME280;64247;51.540;5.854;2023-02-12T13:06:55;103549.97;;;10.79;73.11
75036;BME280;64247;51.540;5.854;2023-02-12T13:14:50;103527.72;;;10.66;74.42
75036;BME280;64247;51.540;5.854;2023-02-12T13:17:42;103532.31;;;10.66;75.19
75036;BME280;64247;51.540;5.854;2023-02-12T13:23:13;103536.97;;;10.65;75.23
75036;BME280;64247;51.540;5.854;2023-02-12T13:25:30;103535.06;;;10.71;74.51
75036;BME280;64247;51.540;5.854;2023-02-12T13:27:45;103535.84;;;10.71;74.39
75036;BME280;64247;51.540;5.854;2023-02-12T13:29:52;103530.69;;;10.70;74.64